createdAt,value
2018-11-21T00:02:21.986Z,1.20
2018-11-21T00:05:02.798Z,1.20
2018-11-21T00:07:43.391Z,1.20
2018-11-21T00:10:24.058Z,1.20
2018-11-21T00:13:05.047Z,1.30
2018-11-21T00:15:46.045Z,1.20
2018-11-21T00:18:26.928Z,1.20
2018-11-21T00:21:08.092Z,1.20
2018-11-21T00:23:48.325Z,1.20
2018-11-21T00:26:29.476Z,1.20
2018-11-21T00:29:10.254Z,1.20
2018-11-21T00:31:50.974Z,1.20
2018-11-21T00:34:31.802Z,1.20
2018-11-21T00:37:12.436Z,1.20
2018-11-21T00:39:53.826Z,1.20
2018-11-21T00:42:34.337Z,1.20
2018-11-21T00:45:14.962Z,1.20
2018-11-21T00:47:55.938Z,1.20
2018-11-21T00:50:36.303Z,1.20
2018-11-21T00:53:16.949Z,1.20
2018-11-21T00:55:57.765Z,1.20
2018-11-21T00:58:38.787Z,1.20
2018-11-21T01:01:19.987Z,1.20
2018-11-21T01:04:00.919Z,1.20
2018-11-21T01:06:41.909Z,1.10
2018-11-21T01:09:22.966Z,1.10
2018-11-21T01:12:04.075Z,1.10
2018-11-21T01:14:45.096Z,1.10
2018-11-21T01:17:26.009Z,1.10
2018-11-21T01:20:07.113Z,1.10
2018-11-21T01:22:47.567Z,1.00
2018-11-21T01:25:28.659Z,1.00
2018-11-21T01:28:09.904Z,1.00
2018-11-21T01:30:50.964Z,1.00
2018-11-21T01:33:31.518Z,1.00
2018-11-21T01:36:11.834Z,1.00
2018-11-21T01:38:53.017Z,1.00
2018-11-21T01:41:34.094Z,1.00
2018-11-21T01:44:14.844Z,0.90
2018-11-21T01:46:56.082Z,0.90
2018-11-21T01:49:36.884Z,0.90
2018-11-21T01:52:18.009Z,0.90
2018-11-21T01:54:59.062Z,0.90
2018-11-21T01:57:39.410Z,0.90
2018-11-21T02:00:20.311Z,0.90
2018-11-21T02:03:01.416Z,0.90
2018-11-21T02:05:42.554Z,0.90
2018-11-21T02:08:23.397Z,0.90
2018-11-21T02:11:04.522Z,0.90
2018-11-21T02:13:45.422Z,0.90
2018-11-21T02:16:26.329Z,0.80
2018-11-21T02:19:07.356Z,0.80
2018-11-21T02:21:46.272Z,0.80
2018-11-21T02:24:34.152Z,0.80
2018-11-21T02:27:21.972Z,0.80
2018-11-21T02:30:09.840Z,0.80
2018-11-21T02:32:57.573Z,0.70
2018-11-21T02:35:45.310Z,0.70
2018-11-21T02:38:33.050Z,0.70
2018-11-21T02:41:20.761Z,0.70
2018-11-21T02:44:08.517Z,0.60
2018-11-21T02:46:56.254Z,0.60
2018-11-21T02:49:43.962Z,0.60
2018-11-21T02:52:31.695Z,0.60
2018-11-21T02:55:19.409Z,0.50
2018-11-21T02:58:07.150Z,0.50
2018-11-21T03:00:54.863Z,0.50
2018-11-21T03:03:42.595Z,0.50
2018-11-21T03:06:30.308Z,0.50
2018-11-21T03:09:18.040Z,0.40
2018-11-21T03:12:06.915Z,0.40
2018-11-21T03:14:54.623Z,0.40
2018-11-21T03:17:42.354Z,0.40
2018-11-21T03:20:30.066Z,0.40
2018-11-21T03:23:17.824Z,0.40
2018-11-21T03:26:05.544Z,0.30
2018-11-21T03:28:53.283Z,0.30
2018-11-21T03:31:41.002Z,0.30
2018-11-21T03:34:22.066Z,0.30
2018-11-21T03:37:02.372Z,0.30
2018-11-21T03:39:42.826Z,0.30
2018-11-21T03:42:23.472Z,0.20
2018-11-21T03:45:03.712Z,0.20
2018-11-21T03:47:44.266Z,0.20
2018-11-21T03:50:25.339Z,0.20
2018-11-21T03:53:06.532Z,0.20
2018-11-21T03:55:47.316Z,0.20
2018-11-21T03:58:27.807Z,0.20
2018-11-21T04:01:08.455Z,0.20
2018-11-21T04:03:49.588Z,0.30
2018-11-21T04:06:30.424Z,0.20
2018-11-21T04:09:12.452Z,0.20
2018-11-21T04:11:54.545Z,0.20
2018-11-21T04:14:34.255Z,0.20
2018-11-21T04:17:15.327Z,0.20
2018-11-21T04:19:55.956Z,0.20
2018-11-21T04:22:37.199Z,0.20
2018-11-21T04:25:17.413Z,0.20
2018-11-21T04:27:58.278Z,0.20
2018-11-21T04:30:39.276Z,0.20
2018-11-21T04:33:20.119Z,0.20
2018-11-21T04:36:01.223Z,0.20
2018-11-21T04:38:41.503Z,0.20
2018-11-21T04:41:21.762Z,0.20
2018-11-21T04:44:00.639Z,0.20
2018-11-21T04:46:48.350Z,0.20
2018-11-21T04:49:36.076Z,0.30
2018-11-21T04:52:23.784Z,0.30
2018-11-21T04:55:11.510Z,0.30
2018-11-21T04:57:59.240Z,0.30
2018-11-21T05:00:46.948Z,0.30
2018-11-21T05:03:34.677Z,0.40
2018-11-21T05:06:22.388Z,0.40
2018-11-21T05:09:11.275Z,0.40
2018-11-21T05:11:58.988Z,0.40
2018-11-21T05:14:46.713Z,0.40
2018-11-21T05:17:34.416Z,0.40
2018-11-21T05:20:22.143Z,0.40
2018-11-21T05:23:09.868Z,0.50
2018-11-21T05:25:57.573Z,0.50
2018-11-21T05:28:45.299Z,0.50
2018-11-21T05:31:33.012Z,0.50
2018-11-21T05:34:20.738Z,0.50
2018-11-21T05:37:08.831Z,0.50
2018-11-21T05:39:56.563Z,0.50
2018-11-21T05:42:44.267Z,0.60
2018-11-21T05:45:31.996Z,0.60
2018-11-21T05:48:19.724Z,0.60
2018-11-21T05:51:07.428Z,0.60
2018-11-21T05:53:55.155Z,0.60
2018-11-21T05:56:42.860Z,0.60
2018-11-21T05:59:30.663Z,0.60
2018-11-21T06:02:18.478Z,0.70
2018-11-21T06:05:06.416Z,0.70
2018-11-21T06:07:54.115Z,0.70
2018-11-21T06:10:41.844Z,0.70
2018-11-21T06:13:29.576Z,0.70
2018-11-21T06:16:17.283Z,0.70
2018-11-21T06:19:05.087Z,0.70
2018-11-21T06:21:52.790Z,0.80
2018-11-21T06:24:40.519Z,0.80
2018-11-21T06:27:28.227Z,0.80
2018-11-21T06:30:16.075Z,0.80
2018-11-21T06:33:03.785Z,0.80
2018-11-21T06:35:51.508Z,0.80
2018-11-21T06:38:39.231Z,0.80
2018-11-21T06:41:27.053Z,0.80
2018-11-21T06:44:14.785Z,0.80
2018-11-21T06:47:02.491Z,0.80
2018-11-21T06:49:50.211Z,0.80
2018-11-21T06:52:37.920Z,0.90
2018-11-21T06:55:25.654Z,0.90
2018-11-21T06:58:13.360Z,0.90
2018-11-21T07:01:01.192Z,0.90
2018-11-21T07:03:48.984Z,0.90
2018-11-21T07:06:36.687Z,0.90
2018-11-21T07:09:24.454Z,0.90
2018-11-21T07:12:12.131Z,0.90
2018-11-21T07:14:59.858Z,0.90
2018-11-21T07:17:47.574Z,0.90
2018-11-21T07:20:35.299Z,0.90
2018-11-21T07:23:23.005Z,0.90
2018-11-21T07:26:10.742Z,0.90
2018-11-21T07:28:58.468Z,0.90
2018-11-21T07:31:46.176Z,0.90
2018-11-21T07:34:33.900Z,0.90
2018-11-21T07:37:21.607Z,0.90
2018-11-21T07:43:03.543Z,0.90
2018-11-21T07:45:51.268Z,0.90
2018-11-21T07:48:38.972Z,0.90
2018-11-21T07:51:26.697Z,1.00
2018-11-21T07:54:14.412Z,1.00
2018-11-21T08:00:34.164Z,1.00
2018-11-21T08:03:22.898Z,1.00
2018-11-21T08:06:29.800Z,1.00
2018-11-21T08:09:36.675Z,1.00
2018-11-21T08:12:43.578Z,1.00
2018-11-21T08:15:50.492Z,1.00
2018-11-21T08:18:57.371Z,1.00
2018-11-21T08:22:04.271Z,1.00
2018-11-21T08:25:09.258Z,1.00
2018-11-21T08:28:16.136Z,1.00
2018-11-21T08:31:03.863Z,1.00
2018-11-21T08:33:51.568Z,1.00
2018-11-21T08:36:39.315Z,1.10
2018-11-21T08:39:27.001Z,1.10
2018-11-21T08:42:14.731Z,1.10
2018-11-21T08:45:02.442Z,1.10
2018-11-21T08:47:50.171Z,1.10
2018-11-21T08:50:37.904Z,1.10
2018-11-21T08:53:25.611Z,1.10
2018-11-21T08:56:13.342Z,1.10
2018-11-21T08:59:01.048Z,1.10
2018-11-21T09:01:48.776Z,1.10
2018-11-21T09:04:36.484Z,1.10
2018-11-21T09:07:24.211Z,1.10
2018-11-21T09:10:13.119Z,1.10
2018-11-21T09:13:00.850Z,1.20
2018-11-21T09:15:48.579Z,1.20
2018-11-21T09:18:36.283Z,1.20
2018-11-21T09:21:24.010Z,1.20
2018-11-21T09:24:11.717Z,1.20
2018-11-21T09:27:06.281Z,1.20
2018-11-21T09:29:53.985Z,1.20
2018-11-21T09:32:41.732Z,1.20
2018-11-21T09:35:29.512Z,1.20
2018-11-21T09:38:17.243Z,1.30
2018-11-21T09:41:05.180Z,1.30
2018-11-21T09:43:52.888Z,1.30
2018-11-21T09:46:40.618Z,1.30
2018-11-21T09:49:28.339Z,1.30
2018-11-21T09:52:16.076Z,1.40
2018-11-21T09:55:03.799Z,1.40
2018-11-21T09:57:51.529Z,1.40
2018-11-21T10:00:58.672Z,1.40
2018-11-21T10:03:46.376Z,1.40
2018-11-21T10:06:35.427Z,1.50
2018-11-21T10:12:32.548Z,1.50
2018-11-21T10:15:20.268Z,1.50
2018-11-21T10:18:08.096Z,1.60
2018-11-21T10:20:55.832Z,1.60
2018-11-21T10:23:43.564Z,1.60
2018-11-21T10:26:31.357Z,1.60
2018-11-21T10:29:19.064Z,1.60
2018-11-21T10:32:06.790Z,1.70
2018-11-21T10:34:54.496Z,1.70
2018-11-21T10:37:42.224Z,1.70
2018-11-21T10:40:29.932Z,1.70
2018-11-21T10:43:17.659Z,1.70
2018-11-21T10:46:05.465Z,1.70
2018-11-21T10:48:53.197Z,1.70
2018-11-21T10:51:40.918Z,1.80
2018-11-21T10:54:28.621Z,1.80
2018-11-21T10:57:16.351Z,1.80
2018-11-21T11:00:04.520Z,1.80
2018-11-21T11:03:11.414Z,1.80
2018-11-21T11:06:18.295Z,1.80
2018-11-21T11:09:27.889Z,1.90
2018-11-21T11:12:34.786Z,1.80
2018-11-21T11:15:41.667Z,1.90
2018-11-21T11:18:48.569Z,1.90
2018-11-21T11:21:55.462Z,1.90
2018-11-21T11:25:02.339Z,1.90
2018-11-21T11:28:10.295Z,1.90
2018-11-21T11:31:16.239Z,1.90
2018-11-21T11:34:23.151Z,1.90
2018-11-21T11:37:30.054Z,1.90
2018-11-21T11:40:37.284Z,1.90
2018-11-21T11:43:43.836Z,1.90
2018-11-21T11:46:50.740Z,1.80
2018-11-21T11:49:57.615Z,1.80
2018-11-21T11:53:04.509Z,1.90
2018-11-21T11:56:11.384Z,1.90
2018-11-21T11:59:18.281Z,1.90
2018-11-21T12:02:25.237Z,1.90
2018-11-21T12:05:32.114Z,1.90
2018-11-21T12:08:39.015Z,1.90
2018-11-21T12:11:45.890Z,1.90
2018-11-21T12:14:52.784Z,1.90
2018-11-21T12:17:59.682Z,1.90
2018-11-21T12:21:06.556Z,1.90
2018-11-21T12:24:13.453Z,2.00
2018-11-21T12:27:20.354Z,2.00
2018-11-21T12:30:27.760Z,2.00
2018-11-21T12:33:34.656Z,2.00
2018-11-21T12:36:41.535Z,2.00
2018-11-21T12:39:48.436Z,2.00
2018-11-21T12:42:50.851Z,2.00
2018-11-21T12:45:57.727Z,2.00
2018-11-21T12:49:04.629Z,2.00
2018-11-21T12:52:11.506Z,2.10
2018-11-21T12:55:18.416Z,2.00
2018-11-21T12:58:25.314Z,2.10
2018-11-21T13:01:21.155Z,2.10
2018-11-21T13:04:28.058Z,2.10
2018-11-21T13:07:34.957Z,2.10
2018-11-21T13:10:41.827Z,2.10
2018-11-21T13:13:48.725Z,2.10
2018-11-21T13:16:55.600Z,2.10
2018-11-21T13:20:02.499Z,2.10
2018-11-21T13:23:09.448Z,2.10
2018-11-21T13:26:16.324Z,2.10
2018-11-21T13:29:17.222Z,2.10
2018-11-21T13:32:19.546Z,2.10
2018-11-21T13:35:26.446Z,2.10
2018-11-21T13:38:33.575Z,2.10
2018-11-21T13:41:40.463Z,2.10
2018-11-21T13:44:47.363Z,2.10
2018-11-21T13:47:54.271Z,2.10
2018-11-21T13:51:01.143Z,2.10
2018-11-21T13:53:58.504Z,2.10
2018-11-21T13:56:47.652Z,2.10
2018-11-21T13:59:36.802Z,2.10
2018-11-21T14:02:24.520Z,2.10
2018-11-21T14:05:12.244Z,2.10
2018-11-21T14:07:59.982Z,2.10
2018-11-21T14:10:47.680Z,2.10
2018-11-21T14:13:35.415Z,2.10
2018-11-21T14:16:23.127Z,2.10
2018-11-21T14:19:10.860Z,2.10
2018-11-21T14:21:55.820Z,2.10
2018-11-21T14:24:31.759Z,2.00
2018-11-21T14:27:12.143Z,2.00
2018-11-21T14:29:53.209Z,2.00
2018-11-21T14:32:34.057Z,2.00
2018-11-21T14:35:16.199Z,2.00
2018-11-21T14:37:57.108Z,2.00
2018-11-21T14:40:38.219Z,2.00
2018-11-21T14:43:18.912Z,1.90
2018-11-21T14:45:59.405Z,1.90
2018-11-21T14:48:40.335Z,1.90
2018-11-21T14:51:21.406Z,1.90
2018-11-21T14:54:02.635Z,1.90
2018-11-21T14:56:43.571Z,1.90
2018-11-21T14:59:24.838Z,1.80
2018-11-21T15:02:05.829Z,1.80
2018-11-21T15:04:46.197Z,1.80
2018-11-21T15:07:26.540Z,1.80
2018-11-21T15:10:06.975Z,1.80
2018-11-21T15:12:47.328Z,1.80
2018-11-21T15:15:28.933Z,1.80
2018-11-21T15:18:09.536Z,1.80
2018-11-21T15:20:50.751Z,1.80
2018-11-21T15:23:31.660Z,1.70
2018-11-21T15:26:12.853Z,1.70
2018-11-21T15:28:53.562Z,1.70
2018-11-21T15:31:34.636Z,1.70
2018-11-21T15:34:15.206Z,1.70
2018-11-21T15:36:56.239Z,1.70
2018-11-21T15:39:37.000Z,1.70
2018-11-21T15:45:30.027Z,1.70
2018-11-21T15:48:10.981Z,1.70
2018-11-21T15:50:51.356Z,1.70
2018-11-21T15:53:32.435Z,1.70
2018-11-21T15:56:13.303Z,1.60
2018-11-21T15:58:54.422Z,1.60
2018-11-21T16:01:35.286Z,1.60
2018-11-21T16:04:15.780Z,1.60
2018-11-21T16:06:56.076Z,1.60
2018-11-21T16:09:37.110Z,1.60
2018-11-21T16:12:18.074Z,1.60
2018-11-21T16:14:58.347Z,1.60
2018-11-21T16:17:39.365Z,1.60
2018-11-21T16:20:20.240Z,1.50
2018-11-21T16:23:01.029Z,1.50
2018-11-21T16:25:41.556Z,1.50
2018-11-21T16:28:22.495Z,1.50
2018-11-21T16:31:02.912Z,1.50
2018-11-21T16:33:43.556Z,1.50
2018-11-21T16:36:27.230Z,1.50
2018-11-21T16:39:05.588Z,1.50
2018-11-21T16:41:46.716Z,1.50
2018-11-21T16:44:27.623Z,1.50
2018-11-21T16:47:08.968Z,1.50
2018-11-21T16:49:50.433Z,1.50
2018-11-21T16:52:30.805Z,1.50
2018-11-21T16:55:12.152Z,1.50
2018-11-21T16:57:53.312Z,1.50
2018-11-21T17:00:33.715Z,1.50
2018-11-21T17:03:14.805Z,1.50
2018-11-21T17:05:55.740Z,1.50
2018-11-21T17:08:35.991Z,1.50
2018-11-21T17:11:17.081Z,1.40
2018-11-21T17:13:58.185Z,1.40
2018-11-21T17:16:39.242Z,1.40
2018-11-21T17:19:19.754Z,1.40
2018-11-21T17:22:00.676Z,1.40
2018-11-21T17:24:41.321Z,1.40
2018-11-21T17:27:21.732Z,1.40
2018-11-21T17:30:02.393Z,1.40
2018-11-21T17:32:43.584Z,1.40
2018-11-21T17:35:25.013Z,1.40
2018-11-21T17:38:05.813Z,1.40
2018-11-21T17:40:46.990Z,1.30
2018-11-21T17:43:27.703Z,1.30
2018-11-21T17:46:09.510Z,1.30
2018-11-21T17:48:50.029Z,1.30
2018-11-21T17:51:30.456Z,1.30
